RYR496E LEZL-GCFV
Flight info
| Callsign | RYR496E |
|---|---|
| Flight time | 2h 3m |
| Altitude | 35000 |
| Route | CLANA N857 KORNO UN857 TERTO |
| Aircraft | B738/M-SDE2E3FGHIRWXY/LB1 |
Departure
| Time | 2026-04-22 07:26 |
|---|---|
| Airport | Seville Airport (LEZL) |
Arrival
| Time | 2026-04-22 09:30 |
|---|---|
| Airport | Fuerteventura Airport (GCFV) |
| Time | Latitude | Longitude | Altitude | Speed | Heading |
|---|---|---|---|---|---|
| 2026-04-22 07:11 | 37.42107 | -5.90118 | 93 ft | 0 kts | 33° |
| 2026-04-22 07:20 | 37.42099 | -5.90125 | 94 ft | 4 kts | 33° |
| 2026-04-22 07:20 | 37.42080 | -5.90140 | 93 ft | 4 kts | 36° |
| 2026-04-22 07:20 | 37.42061 | -5.90163 | 92 ft | 4 kts | 60° |
| 2026-04-22 07:20 | 37.42052 | -5.90193 | 93 ft | 4 kts | 86° |
| 2026-04-22 07:21 | 37.42052 | -5.90208 | 93 ft | 1 kts | 90° |
| 2026-04-22 07:21 | 37.42052 | -5.90209 | 93 ft | 0 kts | 90° |
| 2026-04-22 07:22 | 37.42052 | -5.90206 | 93 ft | 3 kts | 90° |
| 2026-04-22 07:23 | 37.42052 | -5.90143 | 92 ft | 9 kts | 90° |
| 2026-04-22 07:23 | 37.42017 | -5.90098 | 94 ft | 8 kts | 172° |
| 2026-04-22 07:23 | 37.41981 | -5.90136 | 94 ft | 8 kts | 263° |
| 2026-04-22 07:23 | 37.41980 | -5.90232 | 94 ft | 16 kts | 270° |
| 2026-04-22 07:24 | 37.41979 | -5.90405 | 93 ft | 23 kts | 270° |
| 2026-04-22 07:24 | 37.41978 | -5.90618 | 93 ft | 26 kts | 270° |
| 2026-04-22 07:24 | 37.41977 | -5.90850 | 90 ft | 22 kts | 269° |
| 2026-04-22 07:24 | 37.41946 | -5.90992 | 90 ft | 17 kts | 239° |
| 2026-04-22 07:25 | 37.41890 | -5.91115 | 89 ft | 12 kts | 240° |
| 2026-04-22 07:25 | 37.41838 | -5.91191 | 90 ft | 12 kts | 206° |
| 2026-04-22 07:25 | 37.41788 | -5.91155 | 90 ft | 11 kts | 88° |
| 2026-04-22 07:25 | 37.41789 | -5.90931 | 95 ft | 56 kts | 90° |
| 2026-04-22 07:26 | 37.41792 | -5.90153 | 96 ft | 120 kts | 90° |
| 2026-04-22 07:26 | 37.41789 | -5.88872 | 129 ft | 169 kts | 91° |
| 2026-04-22 07:26 | 37.41775 | -5.87383 | 842 ft | 166 kts | 91° |
| 2026-04-22 07:26 | 37.41766 | -5.85878 | 1475 ft | 177 kts | 91° |
| 2026-04-22 07:27 | 37.41751 | -5.84304 | 2025 ft | 191 kts | 94° |
| 2026-04-22 07:27 | 37.41316 | -5.82645 | 2334 ft | 211 kts | 131° |
| 2026-04-22 07:27 | 37.40050 | -5.81744 | 2779 ft | 215 kts | 175° |
| 2026-04-22 07:27 | 37.38636 | -5.82185 | 3287 ft | 216 kts | 218° |
| 2026-04-22 07:28 | 37.36601 | -5.84979 | 4568 ft | 219 kts | 227° |
| 2026-04-22 07:28 | 37.35566 | -5.86346 | 5443 ft | 212 kts | 225° |
| 2026-04-22 07:28 | 37.34550 | -5.87648 | 6363 ft | 205 kts | 223° |
| 2026-04-22 07:29 | 37.33542 | -5.88908 | 7084 ft | 205 kts | 222° |
| 2026-04-22 07:29 | 37.32516 | -5.90165 | 7772 ft | 205 kts | 222° |
| 2026-04-22 07:29 | 37.31485 | -5.91410 | 8492 ft | 206 kts | 221° |
| 2026-04-22 07:29 | 37.30798 | -5.92232 | 8990 ft | 206 kts | 221° |
| 2026-04-22 07:30 | 37.29753 | -5.93472 | 9691 ft | 207 kts | 221° |
| 2026-04-22 07:30 | 37.28704 | -5.94709 | 10353 ft | 209 kts | 221° |
| 2026-04-22 07:30 | 37.27628 | -5.95971 | 10878 ft | 215 kts | 221° |
| 2026-04-22 07:30 | 37.26522 | -5.97261 | 11501 ft | 218 kts | 222° |
| 2026-04-22 07:31 | 37.25395 | -5.98573 | 12106 ft | 223 kts | 222° |
| 2026-04-22 07:31 | 37.24247 | -5.99906 | 12734 ft | 227 kts | 222° |
| 2026-04-22 07:31 | 37.23125 | -6.01207 | 13341 ft | 231 kts | 222° |
| 2026-04-22 07:31 | 37.21931 | -6.02589 | 13961 ft | 236 kts | 223° |
| 2026-04-22 07:32 | 37.20717 | -6.03993 | 14580 ft | 238 kts | 223° |
| 2026-04-22 07:32 | 37.19493 | -6.05406 | 15225 ft | 240 kts | 223° |
| 2026-04-22 07:32 | 37.18260 | -6.06829 | 15849 ft | 243 kts | 223° |
| 2026-04-22 07:32 | 37.17009 | -6.08271 | 16481 ft | 245 kts | 224° |
| 2026-04-22 07:33 | 37.15748 | -6.09725 | 17120 ft | 248 kts | 224° |
| 2026-04-22 07:33 | 37.14473 | -6.11194 | 17766 ft | 250 kts | 224° |
| 2026-04-22 07:33 | 37.13185 | -6.12676 | 18393 ft | 252 kts | 224° |
| 2026-04-22 07:33 | 37.11886 | -6.14169 | 18922 ft | 255 kts | 224° |
| 2026-04-22 07:34 | 37.10569 | -6.15681 | 19467 ft | 258 kts | 224° |
| 2026-04-22 07:34 | 37.09047 | -6.17002 | 19704 ft | 278 kts | 210° |
| 2026-04-22 07:34 | 37.07148 | -6.17815 | 19825 ft | 302 kts | 195° |
| 2026-04-22 07:34 | 37.05020 | -6.18335 | 19963 ft | 321 kts | 195° |
| 2026-04-22 07:35 | 37.02762 | -6.18881 | 20095 ft | 339 kts | 198° |
| 2026-04-22 07:35 | 37.00583 | -6.20062 | 20182 ft | 349 kts | 218° |
| 2026-04-22 07:35 | 36.98654 | -6.22004 | 20318 ft | 364 kts | 222° |
| 2026-04-22 07:35 | 36.96694 | -6.24114 | 20535 ft | 377 kts | 223° |
| 2026-04-22 07:36 | 36.94701 | -6.26285 | 20987 ft | 382 kts | 223° |
| 2026-04-22 07:36 | 36.92695 | -6.28463 | 21540 ft | 384 kts | 223° |
| 2026-04-22 07:36 | 36.90664 | -6.30653 | 22076 ft | 387 kts | 223° |
| 2026-04-22 07:36 | 36.88611 | -6.32853 | 22562 ft | 390 kts | 223° |
| 2026-04-22 07:37 | 36.86540 | -6.35064 | 23047 ft | 394 kts | 223° |
| 2026-04-22 07:37 | 36.84442 | -6.37296 | 23526 ft | 398 kts | 223° |
| 2026-04-22 07:37 | 36.82328 | -6.39542 | 23947 ft | 401 kts | 223° |
| 2026-04-22 07:37 | 36.80200 | -6.41798 | 24338 ft | 404 kts | 223° |
| 2026-04-22 07:38 | 36.78051 | -6.44074 | 24749 ft | 406 kts | 223° |
| 2026-04-22 07:38 | 36.75890 | -6.46363 | 25173 ft | 408 kts | 223° |
| 2026-04-22 07:38 | 36.73723 | -6.48654 | 25592 ft | 410 kts | 224° |
| 2026-04-22 07:38 | 36.71540 | -6.50963 | 25988 ft | 412 kts | 224° |
| 2026-04-22 07:39 | 36.69342 | -6.53284 | 26367 ft | 415 kts | 224° |
| 2026-04-22 07:39 | 36.67137 | -6.55612 | 26740 ft | 417 kts | 224° |
| 2026-04-22 07:39 | 36.64912 | -6.57959 | 27110 ft | 420 kts | 224° |
| 2026-04-22 07:39 | 36.62682 | -6.60310 | 27476 ft | 422 kts | 224° |
| 2026-04-22 07:40 | 36.60432 | -6.62679 | 27837 ft | 424 kts | 224° |
| 2026-04-22 07:40 | 36.58170 | -6.65060 | 28197 ft | 427 kts | 224° |
| 2026-04-22 07:40 | 36.55901 | -6.67446 | 28522 ft | 429 kts | 224° |
| 2026-04-22 07:40 | 36.53613 | -6.69852 | 28827 ft | 432 kts | 224° |
| 2026-04-22 07:41 | 36.51314 | -6.72265 | 29249 ft | 432 kts | 224° |
| 2026-04-22 07:41 | 36.49023 | -6.74653 | 29792 ft | 429 kts | 224° |
| 2026-04-22 07:41 | 36.46731 | -6.77017 | 30300 ft | 427 kts | 224° |
| 2026-04-22 07:41 | 36.44451 | -6.79360 | 30697 ft | 426 kts | 224° |
| 2026-04-22 07:42 | 36.42197 | -6.81674 | 31048 ft | 426 kts | 224° |
| 2026-04-22 07:42 | 36.39915 | -6.84016 | 31416 ft | 425 kts | 224° |
| 2026-04-22 07:42 | 36.37620 | -6.86373 | 31879 ft | 421 kts | 224° |
| 2026-04-22 07:42 | 36.35396 | -6.88655 | 32321 ft | 419 kts | 224° |
| 2026-04-22 07:43 | 36.33150 | -6.90960 | 32667 ft | 419 kts | 224° |
| 2026-04-22 07:43 | 36.30909 | -6.93260 | 32985 ft | 419 kts | 224° |
| 2026-04-22 07:43 | 36.28662 | -6.95563 | 33309 ft | 418 kts | 224° |
| 2026-04-22 07:43 | 36.26416 | -6.97865 | 33643 ft | 418 kts | 224° |
| 2026-04-22 07:44 | 36.24228 | -7.00105 | 33992 ft | 417 kts | 224° |
| 2026-04-22 07:44 | 36.22028 | -7.02354 | 34319 ft | 415 kts | 224° |
| 2026-04-22 07:44 | 36.19800 | -7.04631 | 34626 ft | 414 kts | 224° |
| 2026-04-22 07:44 | 36.17582 | -7.06897 | 34898 ft | 414 kts | 224° |
| 2026-04-22 07:45 | 36.15354 | -7.09171 | 35007 ft | 417 kts | 224° |
| 2026-04-22 07:45 | 36.13105 | -7.11468 | 35015 ft | 420 kts | 224° |
| 2026-04-22 07:45 | 36.08610 | -7.16044 | 35003 ft | 416 kts | 224° |
| 2026-04-22 07:46 | 36.04179 | -7.20547 | 35016 ft | 411 kts | 224° |
| 2026-04-22 07:46 | 35.99762 | -7.25035 | 35017 ft | 412 kts | 224° |
| 2026-04-22 07:47 | 35.95329 | -7.29531 | 35018 ft | 412 kts | 224° |
| 2026-04-22 07:47 | 35.90894 | -7.34023 | 35018 ft | 413 kts | 224° |
| 2026-04-22 07:48 | 35.86451 | -7.38516 | 35016 ft | 413 kts | 224° |
| 2026-04-22 07:48 | 35.81999 | -7.43006 | 35016 ft | 414 kts | 224° |
| 2026-04-22 07:49 | 35.77516 | -7.47481 | 35021 ft | 415 kts | 224° |
| 2026-04-22 07:49 | 35.73031 | -7.51944 | 35018 ft | 415 kts | 224° |
| 2026-04-22 07:50 | 35.68545 | -7.56408 | 35020 ft | 415 kts | 224° |
| 2026-04-22 07:50 | 35.64056 | -7.60870 | 35024 ft | 415 kts | 223° |
| 2026-04-22 07:51 | 35.59564 | -7.65330 | 35019 ft | 415 kts | 223° |
| 2026-04-22 07:51 | 35.55082 | -7.69772 | 35020 ft | 414 kts | 223° |
| 2026-04-22 07:52 | 35.50610 | -7.74200 | 35017 ft | 413 kts | 223° |
| 2026-04-22 07:52 | 35.46147 | -7.78612 | 35014 ft | 412 kts | 223° |
| 2026-04-22 07:53 | 35.41687 | -7.83014 | 35019 ft | 411 kts | 223° |
| 2026-04-22 07:53 | 35.37284 | -7.87393 | 35019 ft | 410 kts | 223° |
| 2026-04-22 07:54 | 35.32867 | -7.91813 | 35020 ft | 410 kts | 223° |
| 2026-04-22 07:54 | 35.28417 | -7.96259 | 35018 ft | 410 kts | 223° |
| 2026-04-22 07:55 | 35.24099 | -8.00563 | 35020 ft | 411 kts | 223° |
| 2026-04-22 07:55 | 35.19668 | -8.04972 | 35013 ft | 411 kts | 223° |
| 2026-04-22 07:56 | 35.15232 | -8.09379 | 35018 ft | 411 kts | 223° |
| 2026-04-22 07:56 | 35.10786 | -8.13789 | 35016 ft | 412 kts | 223° |
| 2026-04-22 07:57 | 35.06330 | -8.18202 | 35023 ft | 413 kts | 223° |
| 2026-04-22 07:57 | 35.01859 | -8.22624 | 35021 ft | 414 kts | 223° |
| 2026-04-22 07:58 | 34.97392 | -8.27036 | 35020 ft | 414 kts | 223° |
| 2026-04-22 07:58 | 34.92913 | -8.31454 | 35015 ft | 414 kts | 223° |
| 2026-04-22 07:59 | 34.88424 | -8.35874 | 35036 ft | 414 kts | 223° |
| 2026-04-22 07:59 | 34.83940 | -8.40284 | 35015 ft | 414 kts | 223° |
| 2026-04-22 08:00 | 34.79458 | -8.44684 | 35034 ft | 414 kts | 223° |
| 2026-04-22 08:00 | 34.74983 | -8.49072 | 35022 ft | 413 kts | 223° |
| 2026-04-22 08:01 | 34.70508 | -8.53453 | 35018 ft | 412 kts | 223° |
| 2026-04-22 08:01 | 34.66047 | -8.57816 | 35019 ft | 411 kts | 223° |
| 2026-04-22 08:02 | 34.61593 | -8.62165 | 35022 ft | 411 kts | 223° |
| 2026-04-22 08:02 | 34.57142 | -8.66505 | 35021 ft | 410 kts | 223° |
| 2026-04-22 08:03 | 34.52685 | -8.70845 | 35022 ft | 410 kts | 223° |
| 2026-04-22 08:03 | 34.48236 | -8.75173 | 35026 ft | 410 kts | 223° |
| 2026-04-22 08:04 | 34.43782 | -8.79496 | 35021 ft | 410 kts | 223° |
| 2026-04-22 08:04 | 34.39310 | -8.83802 | 35013 ft | 410 kts | 223° |
| 2026-04-22 08:05 | 34.34840 | -8.88092 | 35022 ft | 410 kts | 223° |
| 2026-04-22 08:05 | 34.30398 | -8.92353 | 35022 ft | 410 kts | 223° |
| 2026-04-22 08:06 | 34.25894 | -8.96670 | 35021 ft | 411 kts | 223° |
| 2026-04-22 08:06 | 34.21523 | -9.00854 | 35022 ft | 411 kts | 223° |
| 2026-04-22 08:07 | 34.17041 | -9.05139 | 35021 ft | 411 kts | 223° |
| 2026-04-22 08:07 | 34.12554 | -9.09422 | 35008 ft | 411 kts | 222° |
| 2026-04-22 08:08 | 34.08067 | -9.13700 | 35022 ft | 411 kts | 222° |
| 2026-04-22 08:08 | 34.03571 | -9.17979 | 35022 ft | 411 kts | 222° |
| 2026-04-22 08:09 | 33.99086 | -9.22244 | 35022 ft | 411 kts | 222° |
| 2026-04-22 08:09 | 33.94593 | -9.26509 | 35022 ft | 411 kts | 222° |
| 2026-04-22 08:10 | 33.90099 | -9.30769 | 35025 ft | 411 kts | 222° |
| 2026-04-22 08:10 | 33.85599 | -9.35030 | 35015 ft | 411 kts | 222° |
| 2026-04-22 08:11 | 33.81104 | -9.39279 | 35022 ft | 411 kts | 222° |
| 2026-04-22 08:11 | 33.76611 | -9.43522 | 35025 ft | 411 kts | 222° |
| 2026-04-22 08:12 | 33.72115 | -9.47761 | 35026 ft | 411 kts | 222° |
| 2026-04-22 08:12 | 33.67643 | -9.51971 | 35023 ft | 411 kts | 222° |
| 2026-04-22 08:13 | 33.63148 | -9.56198 | 35023 ft | 411 kts | 222° |
| 2026-04-22 08:13 | 33.58653 | -9.60419 | 35025 ft | 410 kts | 222° |
| 2026-04-22 08:14 | 33.54130 | -9.64660 | 35021 ft | 410 kts | 222° |
| 2026-04-22 08:14 | 33.49665 | -9.68842 | 35025 ft | 410 kts | 222° |
| 2026-04-22 08:15 | 33.45175 | -9.73040 | 35024 ft | 409 kts | 222° |
| 2026-04-22 08:15 | 33.40687 | -9.77232 | 35024 ft | 409 kts | 222° |
| 2026-04-22 08:16 | 33.36197 | -9.81420 | 35025 ft | 409 kts | 221° |
| 2026-04-22 08:16 | 33.32460 | -9.84901 | 35026 ft | 409 kts | 221° |
| 2026-04-22 08:17 | 33.27973 | -9.89076 | 35010 ft | 409 kts | 221° |
| 2026-04-22 08:17 | 33.23458 | -9.93271 | 35023 ft | 408 kts | 221° |
| 2026-04-22 08:18 | 33.19005 | -9.97403 | 35025 ft | 408 kts | 221° |
| 2026-04-22 08:18 | 33.14600 | -10.01486 | 35024 ft | 408 kts | 221° |
| 2026-04-22 08:19 | 33.10118 | -10.05635 | 35023 ft | 408 kts | 221° |
| 2026-04-22 08:19 | 33.05636 | -10.09779 | 35025 ft | 408 kts | 221° |
| 2026-04-22 08:20 | 33.01153 | -10.13918 | 35025 ft | 408 kts | 221° |
| 2026-04-22 08:20 | 32.96666 | -10.18049 | 35024 ft | 408 kts | 221° |
| 2026-04-22 08:21 | 32.92180 | -10.22175 | 35026 ft | 407 kts | 221° |
| 2026-04-22 08:21 | 32.87696 | -10.26295 | 35023 ft | 407 kts | 221° |
| 2026-04-22 08:22 | 32.83212 | -10.30410 | 35027 ft | 407 kts | 221° |
| 2026-04-22 08:22 | 32.78725 | -10.34524 | 35027 ft | 407 kts | 221° |
| 2026-04-22 08:23 | 32.74244 | -10.38627 | 35027 ft | 407 kts | 221° |
| 2026-04-22 08:23 | 32.69763 | -10.42723 | 35018 ft | 406 kts | 221° |
| 2026-04-22 08:24 | 32.65280 | -10.46818 | 35028 ft | 406 kts | 221° |
| 2026-04-22 08:24 | 32.60800 | -10.50903 | 35026 ft | 406 kts | 221° |
| 2026-04-22 08:25 | 32.56318 | -10.54985 | 35026 ft | 406 kts | 221° |
| 2026-04-22 08:25 | 32.51834 | -10.59064 | 35031 ft | 406 kts | 221° |
| 2026-04-22 08:26 | 32.47342 | -10.63145 | 35023 ft | 406 kts | 220° |
| 2026-04-22 08:26 | 32.42857 | -10.67214 | 35010 ft | 406 kts | 221° |
| 2026-04-22 08:27 | 32.38375 | -10.71274 | 35024 ft | 406 kts | 221° |
| 2026-04-22 08:27 | 32.33896 | -10.75328 | 35017 ft | 405 kts | 221° |
| 2026-04-22 08:28 | 32.29412 | -10.79380 | 35030 ft | 405 kts | 221° |
| 2026-04-22 08:28 | 32.24935 | -10.83421 | 35026 ft | 405 kts | 221° |
| 2026-04-22 08:29 | 32.20458 | -10.87457 | 35034 ft | 405 kts | 221° |
| 2026-04-22 08:29 | 32.15981 | -10.91488 | 35028 ft | 405 kts | 221° |
| 2026-04-22 08:30 | 32.11500 | -10.95517 | 35024 ft | 404 kts | 221° |
| 2026-04-22 08:30 | 32.07026 | -10.99535 | 35030 ft | 404 kts | 221° |
| 2026-04-22 08:31 | 32.02662 | -11.03450 | 35028 ft | 404 kts | 221° |
| 2026-04-22 08:32 | 31.95961 | -11.09452 | 35020 ft | 404 kts | 221° |
| 2026-04-22 08:32 | 31.91489 | -11.13450 | 35030 ft | 404 kts | 221° |
| 2026-04-22 08:33 | 31.87011 | -11.17450 | 35026 ft | 404 kts | 221° |
| 2026-04-22 08:33 | 31.82540 | -11.21439 | 35020 ft | 403 kts | 221° |
| 2026-04-22 08:34 | 31.78071 | -11.25421 | 35020 ft | 403 kts | 221° |
| 2026-04-22 08:34 | 31.73602 | -11.29399 | 35022 ft | 403 kts | 221° |
| 2026-04-22 08:35 | 31.69128 | -11.33383 | 35029 ft | 403 kts | 221° |
| 2026-04-22 08:35 | 31.64662 | -11.37360 | 35020 ft | 403 kts | 221° |
| 2026-04-22 08:36 | 31.60197 | -11.41330 | 35021 ft | 403 kts | 221° |
| 2026-04-22 08:36 | 31.55728 | -11.45300 | 35004 ft | 402 kts | 221° |
| 2026-04-22 08:37 | 31.51269 | -11.49255 | 35016 ft | 402 kts | 221° |
| 2026-04-22 08:37 | 31.46814 | -11.53202 | 35022 ft | 401 kts | 221° |
| 2026-04-22 08:38 | 31.42359 | -11.57144 | 35022 ft | 401 kts | 221° |
| 2026-04-22 08:38 | 31.37927 | -11.61061 | 35021 ft | 401 kts | 221° |
| 2026-04-22 08:39 | 31.33471 | -11.64995 | 35020 ft | 401 kts | 221° |
| 2026-04-22 08:39 | 31.29013 | -11.68925 | 35022 ft | 401 kts | 221° |
| 2026-04-22 08:40 | 31.24554 | -11.72852 | 35007 ft | 401 kts | 221° |
| 2026-04-22 08:40 | 31.20095 | -11.76773 | 35015 ft | 401 kts | 221° |
| 2026-04-22 08:41 | 31.15628 | -11.80698 | 35018 ft | 402 kts | 221° |
| 2026-04-22 08:41 | 31.11163 | -11.84616 | 35020 ft | 402 kts | 221° |
| 2026-04-22 08:42 | 31.06692 | -11.88534 | 35020 ft | 402 kts | 221° |
| 2026-04-22 08:42 | 31.02211 | -11.92456 | 35019 ft | 402 kts | 221° |
| 2026-04-22 08:43 | 30.97738 | -11.96366 | 35019 ft | 403 kts | 221° |
| 2026-04-22 08:43 | 30.93342 | -12.00205 | 35006 ft | 403 kts | 221° |
| 2026-04-22 08:44 | 30.88860 | -12.04114 | 35015 ft | 403 kts | 221° |
| 2026-04-22 08:44 | 30.84373 | -12.08023 | 35016 ft | 403 kts | 221° |
| 2026-04-22 08:45 | 30.79891 | -12.11923 | 35028 ft | 402 kts | 221° |
| 2026-04-22 08:45 | 30.75410 | -12.15818 | 35019 ft | 402 kts | 221° |
| 2026-04-22 08:46 | 30.70925 | -12.19711 | 35022 ft | 402 kts | 221° |
| 2026-04-22 08:46 | 30.66454 | -12.23587 | 35020 ft | 402 kts | 221° |
| 2026-04-22 08:47 | 30.62005 | -12.27440 | 35022 ft | 401 kts | 221° |
| 2026-04-22 08:47 | 30.57535 | -12.31308 | 35015 ft | 401 kts | 221° |
| 2026-04-22 08:48 | 30.53064 | -12.35171 | 35020 ft | 401 kts | 221° |
| 2026-04-22 08:48 | 30.48591 | -12.39028 | 35016 ft | 401 kts | 221° |
| 2026-04-22 08:49 | 30.44106 | -12.42879 | 35018 ft | 401 kts | 221° |
| 2026-04-22 08:49 | 30.39629 | -12.46718 | 34934 ft | 398 kts | 221° |
| 2026-04-22 08:49 | 30.37417 | -12.48613 | 34656 ft | 391 kts | 221° |
| 2026-04-22 08:50 | 30.35253 | -12.50464 | 34411 ft | 385 kts | 221° |
| 2026-04-22 08:50 | 30.33111 | -12.52297 | 34169 ft | 381 kts | 220° |
| 2026-04-22 08:50 | 30.30991 | -12.54113 | 33928 ft | 379 kts | 220° |
| 2026-04-22 08:50 | 30.28871 | -12.55930 | 33665 ft | 378 kts | 220° |
| 2026-04-22 08:51 | 30.26755 | -12.57740 | 33395 ft | 377 kts | 220° |
| 2026-04-22 08:51 | 30.24650 | -12.59540 | 33136 ft | 377 kts | 220° |
| 2026-04-22 08:51 | 30.22542 | -12.61341 | 32877 ft | 376 kts | 220° |
| 2026-04-22 08:51 | 30.20438 | -12.63138 | 32621 ft | 375 kts | 220° |
| 2026-04-22 08:52 | 30.18343 | -12.64927 | 32363 ft | 375 kts | 220° |
| 2026-04-22 08:52 | 30.16244 | -12.66718 | 32110 ft | 374 kts | 219° |
| 2026-04-22 08:52 | 30.14148 | -12.68505 | 31859 ft | 374 kts | 219° |
| 2026-04-22 08:52 | 30.12061 | -12.70283 | 31612 ft | 373 kts | 219° |
| 2026-04-22 08:53 | 30.09959 | -12.72047 | 31363 ft | 373 kts | 217° |
| 2026-04-22 08:53 | 30.07739 | -12.73617 | 31119 ft | 374 kts | 213° |
| 2026-04-22 08:53 | 30.05464 | -12.75063 | 30880 ft | 374 kts | 211° |
| 2026-04-22 08:53 | 30.03170 | -12.76476 | 30637 ft | 373 kts | 211° |
| 2026-04-22 08:54 | 30.00888 | -12.77881 | 30411 ft | 371 kts | 211° |
| 2026-04-22 08:54 | 29.98623 | -12.79290 | 30170 ft | 370 kts | 211° |
| 2026-04-22 08:54 | 29.96373 | -12.80703 | 29907 ft | 368 kts | 211° |
| 2026-04-22 08:54 | 29.94133 | -12.82119 | 29639 ft | 366 kts | 212° |
| 2026-04-22 08:55 | 29.91908 | -12.83533 | 29353 ft | 364 kts | 212° |
| 2026-04-22 08:55 | 29.89696 | -12.84942 | 29079 ft | 362 kts | 212° |
| 2026-04-22 08:55 | 29.87531 | -12.86321 | 28814 ft | 360 kts | 212° |
| 2026-04-22 08:55 | 29.85344 | -12.87716 | 28552 ft | 358 kts | 212° |
| 2026-04-22 08:56 | 29.83177 | -12.89097 | 28346 ft | 355 kts | 212° |
| 2026-04-22 08:56 | 29.81031 | -12.90464 | 28227 ft | 350 kts | 212° |
| 2026-04-22 08:56 | 29.78917 | -12.91811 | 28081 ft | 346 kts | 212° |
| 2026-04-22 08:56 | 29.76799 | -12.93160 | 27960 ft | 349 kts | 212° |
| 2026-04-22 08:57 | 29.74655 | -12.94526 | 27823 ft | 355 kts | 212° |
| 2026-04-22 08:57 | 29.72494 | -12.95902 | 27700 ft | 355 kts | 212° |
| 2026-04-22 08:57 | 29.70335 | -12.97274 | 27562 ft | 353 kts | 212° |
| 2026-04-22 08:57 | 29.68183 | -12.98640 | 27434 ft | 352 kts | 212° |
| 2026-04-22 08:58 | 29.66045 | -12.99998 | 27305 ft | 351 kts | 212° |
| 2026-04-22 08:58 | 29.63987 | -13.01304 | 27182 ft | 350 kts | 212° |
| 2026-04-22 08:58 | 29.61859 | -13.02654 | 27056 ft | 350 kts | 212° |
| 2026-04-22 08:58 | 29.59730 | -13.04004 | 26928 ft | 349 kts | 212° |
| 2026-04-22 08:59 | 29.57605 | -13.05351 | 26807 ft | 348 kts | 212° |
| 2026-04-22 08:59 | 29.55489 | -13.06692 | 26679 ft | 348 kts | 212° |
| 2026-04-22 08:59 | 29.53369 | -13.08035 | 26556 ft | 347 kts | 212° |
| 2026-04-22 08:59 | 29.51251 | -13.09376 | 26440 ft | 347 kts | 212° |
| 2026-04-22 09:00 | 29.49141 | -13.10711 | 26316 ft | 347 kts | 212° |
| 2026-04-22 09:00 | 29.47026 | -13.12048 | 26193 ft | 347 kts | 212° |
| 2026-04-22 09:00 | 29.44919 | -13.13381 | 26052 ft | 347 kts | 212° |
| 2026-04-22 09:00 | 29.42806 | -13.14716 | 25946 ft | 346 kts | 212° |
| 2026-04-22 09:01 | 29.40695 | -13.16050 | 25826 ft | 346 kts | 212° |
| 2026-04-22 09:01 | 29.39195 | -13.16996 | 25740 ft | 346 kts | 212° |
| 2026-04-22 09:01 | 29.37086 | -13.18326 | 25622 ft | 346 kts | 212° |
| 2026-04-22 09:01 | 29.34960 | -13.19621 | 25501 ft | 346 kts | 210° |
| 2026-04-22 09:02 | 29.32794 | -13.20818 | 25382 ft | 346 kts | 209° |
| 2026-04-22 09:02 | 29.30606 | -13.21996 | 25158 ft | 349 kts | 209° |
| 2026-04-22 09:02 | 29.28424 | -13.23172 | 25062 ft | 344 kts | 209° |
| 2026-04-22 09:02 | 29.26278 | -13.24338 | 25026 ft | 341 kts | 209° |
| 2026-04-22 09:03 | 29.24135 | -13.25511 | 25032 ft | 342 kts | 209° |
| 2026-04-22 09:03 | 29.21982 | -13.26694 | 25027 ft | 344 kts | 209° |
| 2026-04-22 09:03 | 29.20554 | -13.27478 | 24991 ft | 343 kts | 209° |
| 2026-04-22 09:03 | 29.18383 | -13.28669 | 24491 ft | 349 kts | 209° |
| 2026-04-22 09:04 | 29.16190 | -13.29870 | 24083 ft | 350 kts | 209° |
| 2026-04-22 09:04 | 29.13991 | -13.31073 | 23641 ft | 351 kts | 209° |
| 2026-04-22 09:04 | 29.11782 | -13.32282 | 23133 ft | 352 kts | 209° |
| 2026-04-22 09:04 | 29.09570 | -13.33491 | 22669 ft | 352 kts | 208° |
| 2026-04-22 09:05 | 29.07368 | -13.34694 | 22217 ft | 351 kts | 208° |
| 2026-04-22 09:05 | 29.05165 | -13.35898 | 21771 ft | 350 kts | 208° |
| 2026-04-22 09:05 | 29.02972 | -13.37096 | 21337 ft | 350 kts | 208° |
| 2026-04-22 09:05 | 29.00778 | -13.38293 | 20901 ft | 349 kts | 208° |
| 2026-04-22 09:06 | 28.98598 | -13.39483 | 20473 ft | 348 kts | 208° |
| 2026-04-22 09:06 | 28.96413 | -13.40675 | 20041 ft | 347 kts | 208° |
| 2026-04-22 09:06 | 28.94231 | -13.41865 | 19609 ft | 347 kts | 208° |
| 2026-04-22 09:06 | 28.92058 | -13.43049 | 19183 ft | 347 kts | 207° |
| 2026-04-22 09:07 | 28.89880 | -13.44236 | 18749 ft | 346 kts | 207° |
| 2026-04-22 09:07 | 28.87702 | -13.45422 | 18301 ft | 347 kts | 207° |
| 2026-04-22 09:07 | 28.85531 | -13.46603 | 17827 ft | 346 kts | 207° |
| 2026-04-22 09:07 | 28.83360 | -13.47784 | 17371 ft | 345 kts | 207° |
| 2026-04-22 09:08 | 28.81199 | -13.48959 | 16952 ft | 343 kts | 207° |
| 2026-04-22 09:08 | 28.79054 | -13.50125 | 16536 ft | 341 kts | 207° |
| 2026-04-22 09:08 | 28.76914 | -13.51287 | 16105 ft | 340 kts | 207° |
| 2026-04-22 09:08 | 28.74790 | -13.52441 | 15684 ft | 338 kts | 207° |
| 2026-04-22 09:09 | 28.72671 | -13.53591 | 15267 ft | 336 kts | 207° |
| 2026-04-22 09:09 | 28.70567 | -13.54733 | 14853 ft | 335 kts | 206° |
| 2026-04-22 09:09 | 28.68466 | -13.55872 | 14443 ft | 333 kts | 206° |
| 2026-04-22 09:09 | 28.66399 | -13.56993 | 14023 ft | 333 kts | 206° |
| 2026-04-22 09:10 | 28.64288 | -13.58136 | 13562 ft | 332 kts | 206° |
| 2026-04-22 09:10 | 28.62236 | -13.59248 | 13133 ft | 330 kts | 206° |
| 2026-04-22 09:10 | 28.60168 | -13.60368 | 12711 ft | 328 kts | 206° |
| 2026-04-22 09:10 | 28.58120 | -13.61477 | 12305 ft | 325 kts | 206° |
| 2026-04-22 09:11 | 28.56079 | -13.62580 | 11889 ft | 323 kts | 206° |
| 2026-04-22 09:11 | 28.54051 | -13.63677 | 11489 ft | 322 kts | 206° |
| 2026-04-22 09:11 | 28.52030 | -13.64740 | 11096 ft | 320 kts | 204° |
| 2026-04-22 09:11 | 28.49988 | -13.65735 | 10701 ft | 318 kts | 204° |
| 2026-04-22 09:12 | 28.47953 | -13.66716 | 10313 ft | 317 kts | 204° |
| 2026-04-22 09:12 | 28.45882 | -13.67535 | 9912 ft | 317 kts | 189° |
| 2026-04-22 09:12 | 28.43733 | -13.67545 | 9949 ft | 302 kts | 176° |
| 2026-04-22 09:12 | 28.41699 | -13.67229 | 9873 ft | 288 kts | 173° |
| 2026-04-22 09:13 | 28.39774 | -13.66886 | 9716 ft | 273 kts | 173° |
| 2026-04-22 09:13 | 28.37918 | -13.66568 | 9337 ft | 268 kts | 174° |
| 2026-04-22 09:13 | 28.36095 | -13.66253 | 8974 ft | 263 kts | 170° |
| 2026-04-22 09:13 | 28.34416 | -13.65475 | 8646 ft | 260 kts | 153° |
| 2026-04-22 09:14 | 28.32857 | -13.64464 | 8262 ft | 258 kts | 153° |
| 2026-04-22 09:14 | 28.31309 | -13.63476 | 8074 ft | 249 kts | 154° |
| 2026-04-22 09:14 | 28.29798 | -13.62525 | 8038 ft | 250 kts | 154° |
| 2026-04-22 09:14 | 28.28255 | -13.61563 | 8053 ft | 257 kts | 154° |
| 2026-04-22 09:15 | 28.26673 | -13.60581 | 8036 ft | 260 kts | 154° |
| 2026-04-22 09:15 | 28.25096 | -13.59603 | 8023 ft | 257 kts | 155° |
| 2026-04-22 09:15 | 28.23427 | -13.59051 | 7989 ft | 246 kts | 181° |
| 2026-04-22 09:15 | 28.21753 | -13.59180 | 8003 ft | 238 kts | 189° |
| 2026-04-22 09:16 | 28.20126 | -13.59429 | 7999 ft | 235 kts | 190° |
| 2026-04-22 09:16 | 28.18510 | -13.59684 | 7998 ft | 235 kts | 190° |
| 2026-04-22 09:16 | 28.16881 | -13.59933 | 8015 ft | 239 kts | 189° |
| 2026-04-22 09:16 | 28.15218 | -13.60180 | 8020 ft | 242 kts | 189° |
| 2026-04-22 09:17 | 28.13554 | -13.60422 | 8008 ft | 240 kts | 189° |
| 2026-04-22 09:17 | 28.11902 | -13.60661 | 8008 ft | 239 kts | 189° |
| 2026-04-22 09:17 | 28.10345 | -13.61231 | 7973 ft | 236 kts | 215° |
| 2026-04-22 09:17 | 28.09095 | -13.62404 | 8006 ft | 233 kts | 222° |
| 2026-04-22 09:18 | 28.07885 | -13.63634 | 8004 ft | 234 kts | 222° |
| 2026-04-22 09:18 | 28.06689 | -13.64849 | 8007 ft | 234 kts | 222° |
| 2026-04-22 09:18 | 28.05460 | -13.66094 | 8008 ft | 235 kts | 222° |
| 2026-04-22 09:18 | 28.04237 | -13.67328 | 8012 ft | 236 kts | 222° |
| 2026-04-22 09:19 | 28.03012 | -13.68563 | 8009 ft | 237 kts | 222° |
| 2026-04-22 09:19 | 28.01795 | -13.69788 | 8010 ft | 237 kts | 222° |
| 2026-04-22 09:19 | 28.00715 | -13.71198 | 7921 ft | 242 kts | 244° |
| 2026-04-22 09:19 | 28.00226 | -13.73029 | 7788 ft | 246 kts | 255° |
| 2026-04-22 09:20 | 27.99825 | -13.74907 | 7573 ft | 245 kts | 255° |
| 2026-04-22 09:20 | 27.99424 | -13.76764 | 7368 ft | 242 kts | 255° |
| 2026-04-22 09:20 | 27.99025 | -13.78603 | 7167 ft | 239 kts | 255° |
| 2026-04-22 09:20 | 27.98630 | -13.80419 | 6963 ft | 236 kts | 255° |
| 2026-04-22 09:21 | 27.98353 | -13.82232 | 6760 ft | 235 kts | 271° |
| 2026-04-22 09:21 | 27.98855 | -13.83985 | 6579 ft | 239 kts | 301° |
| 2026-04-22 09:21 | 28.00074 | -13.85272 | 6380 ft | 245 kts | 328° |
| 2026-04-22 09:21 | 28.01709 | -13.85833 | 6177 ft | 249 kts | 350° |
| 2026-04-22 09:22 | 28.03438 | -13.85990 | 5944 ft | 251 kts | 354° |
| 2026-04-22 09:22 | 28.05182 | -13.86076 | 5725 ft | 250 kts | 355° |
| 2026-04-22 09:22 | 28.06919 | -13.86156 | 5506 ft | 248 kts | 355° |
| 2026-04-22 09:22 | 28.08634 | -13.86242 | 5293 ft | 246 kts | 355° |
| 2026-04-22 09:23 | 28.10334 | -13.86334 | 5073 ft | 243 kts | 355° |
| 2026-04-22 09:23 | 28.12010 | -13.86430 | 4883 ft | 240 kts | 355° |
| 2026-04-22 09:23 | 28.13671 | -13.86528 | 4676 ft | 237 kts | 355° |
| 2026-04-22 09:23 | 28.15312 | -13.86628 | 4469 ft | 235 kts | 355° |
| 2026-04-22 09:24 | 28.16930 | -13.86727 | 4268 ft | 232 kts | 355° |
| 2026-04-22 09:24 | 28.18530 | -13.86827 | 4080 ft | 228 kts | 356° |
| 2026-04-22 09:24 | 28.20109 | -13.86925 | 3888 ft | 226 kts | 356° |
| 2026-04-22 09:24 | 28.21668 | -13.87035 | 3702 ft | 223 kts | 356° |
| 2026-04-22 09:25 | 28.23213 | -13.87084 | 3522 ft | 221 kts | 359° |
| 2026-04-22 09:25 | 28.24739 | -13.87058 | 3328 ft | 217 kts | 1° |
| 2026-04-22 09:25 | 28.26237 | -13.87010 | 3145 ft | 214 kts | 1° |
| 2026-04-22 09:25 | 28.27715 | -13.86960 | 2960 ft | 211 kts | 1° |
| 2026-04-22 09:26 | 28.29153 | -13.86911 | 2808 ft | 202 kts | 1° |
| 2026-04-22 09:26 | 28.30506 | -13.86866 | 2715 ft | 188 kts | 1° |
| 2026-04-22 09:26 | 28.31799 | -13.86823 | 2485 ft | 183 kts | 1° |
| 2026-04-22 09:26 | 28.33056 | -13.86782 | 2245 ft | 179 kts | 2° |
| 2026-04-22 09:27 | 28.34276 | -13.86741 | 2006 ft | 171 kts | 2° |
| 2026-04-22 09:27 | 28.35397 | -13.86704 | 1789 ft | 155 kts | 2° |
| 2026-04-22 09:27 | 28.36433 | -13.86668 | 1582 ft | 148 kts | 2° |
| 2026-04-22 09:27 | 28.37457 | -13.86625 | 1398 ft | 146 kts | 1° |
| 2026-04-22 09:28 | 28.38476 | -13.86590 | 1206 ft | 147 kts | 360° |
| 2026-04-22 09:28 | 28.39508 | -13.86563 | 990 ft | 148 kts | 1° |
| 2026-04-22 09:28 | 28.40532 | -13.86531 | 792 ft | 144 kts | 1° |
| 2026-04-22 09:28 | 28.41518 | -13.86501 | 623 ft | 142 kts | 2° |
| 2026-04-22 09:29 | 28.42501 | -13.86469 | 454 ft | 142 kts | 2° |
| 2026-04-22 09:29 | 28.43497 | -13.86432 | 222 ft | 143 kts | 2° |
| 2026-04-22 09:29 | 28.44480 | -13.86398 | 58 ft | 137 kts | 4° |
| 2026-04-22 09:29 | 28.45306 | -13.86374 | 81 ft | 91 kts | 1° |
| 2026-04-22 09:30 | 28.45736 | -13.86361 | 88 ft | 40 kts | 1° |
| 2026-04-22 09:30 | 28.45958 | -13.86372 | 90 ft | 30 kts | 342° |
| 2026-04-22 09:30 | 28.46131 | -13.86472 | 95 ft | 16 kts | 317° |
| 2026-04-22 09:30 | 28.46100 | -13.86541 | 99 ft | 12 kts | 190° |
| 2026-04-22 09:31 | 28.46019 | -13.86546 | 97 ft | 12 kts | 180° |
| 2026-04-22 09:31 | 28.45940 | -13.86548 | 98 ft | 11 kts | 181° |
| 2026-04-22 09:31 | 28.45838 | -13.86552 | 97 ft | 20 kts | 181° |
| 2026-04-22 09:31 | 28.45715 | -13.86566 | 98 ft | 7 kts | 218° |
| 2026-04-22 09:32 | 28.45713 | -13.86621 | 100 ft | 7 kts | 268° |
| 2026-04-22 09:32 | 28.45713 | -13.86681 | 101 ft | 8 kts | 268° |
| 2026-04-22 09:32 | 28.45697 | -13.86724 | 99 ft | 5 kts | 243° |
| 2026-04-22 09:32 | 28.45694 | -13.86763 | 98 ft | 6 kts | 271° |
| 2026-04-22 09:33 | 28.45695 | -13.86807 | 98 ft | 4 kts | 271° |
| 2026-04-22 09:33 | 28.45696 | -13.86822 | 98 ft | 0 kts | 271° |